sensor_id;sensor_type;location;lat;lon;timestamp;temperature;humidity
16955;DHT22;8594;52.052;8.354;2023-04-28T00:00:05;10.40;97.80
16955;DHT22;8594;52.052;8.354;2023-04-28T00:02:33;10.50;98.00
16955;DHT22;8594;52.052;8.354;2023-04-28T00:05:00;10.60;97.80
16955;DHT22;8594;52.052;8.354;2023-04-28T00:07:27;10.60;98.00
16955;DHT22;8594;52.052;8.354;2023-04-28T00:09:55;10.70;97.70
16955;DHT22;8594;52.052;8.354;2023-04-28T00:12:22;10.90;97.80
16955;DHT22;8594;52.052;8.354;2023-04-28T00:14:49;10.70;98.10
16955;DHT22;8594;52.052;8.354;2023-04-28T00:17:16;10.70;98.20
16955;DHT22;8594;52.052;8.354;2023-04-28T00:19:43;10.90;97.90
16955;DHT22;8594;52.052;8.354;2023-04-28T00:22:10;11.00;98.10
16955;DHT22;8594;52.052;8.354;2023-04-28T00:24:36;10.90;97.80
16955;DHT22;8594;52.052;8.354;2023-04-28T00:27:05;10.90;97.90
16955;DHT22;8594;52.052;8.354;2023-04-28T00:29:31;10.80;98.20
16955;DHT22;8594;52.052;8.354;2023-04-28T00:31:58;11.00;98.30
16955;DHT22;8594;52.052;8.354;2023-04-28T00:34:25;10.90;98.30
16955;DHT22;8594;52.052;8.354;2023-04-28T00:36:52;10.70;98.20
16955;DHT22;8594;52.052;8.354;2023-04-28T00:39:19;10.90;98.20
16955;DHT22;8594;52.052;8.354;2023-04-28T00:41:47;10.80;98.20
16955;DHT22;8594;52.052;8.354;2023-04-28T00:44:15;10.60;98.70
16955;DHT22;8594;52.052;8.354;2023-04-28T00:46:42;10.80;98.60
16955;DHT22;8594;52.052;8.354;2023-04-28T00:49:09;10.80;98.70
16955;DHT22;8594;52.052;8.354;2023-04-28T00:51:36;10.70;98.70
16955;DHT22;8594;52.052;8.354;2023-04-28T00:54:03;10.70;98.60
16955;DHT22;8594;52.052;8.354;2023-04-28T00:56:31;10.70;99.30
16955;DHT22;8594;52.052;8.354;2023-04-28T00:58:59;10.80;99.20
16955;DHT22;8594;52.052;8.354;2023-04-28T01:01:27;11.00;99.10
16955;DHT22;8594;52.052;8.354;2023-04-28T01:03:54;11.00;98.60
16955;DHT22;8594;52.052;8.354;2023-04-28T01:06:21;10.90;99.40
16955;DHT22;8594;52.052;8.354;2023-04-28T01:08:49;10.90;99.30
16955;DHT22;8594;52.052;8.354;2023-04-28T01:11:16;11.00;99.10
16955;DHT22;8594;52.052;8.354;2023-04-28T01:13:43;10.90;99.20
16955;DHT22;8594;52.052;8.354;2023-04-28T01:16:10;10.90;99.10
16955;DHT22;8594;52.052;8.354;2023-04-28T01:18:42;11.00;99.20
16955;DHT22;8594;52.052;8.354;2023-04-28T01:21:12;10.90;99.30
16955;DHT22;8594;52.052;8.354;2023-04-28T01:23:39;10.90;99.40
16955;DHT22;8594;52.052;8.354;2023-04-28T01:26:07;10.80;99.60
16955;DHT22;8594;52.052;8.354;2023-04-28T01:28:34;10.80;99.70
16955;DHT22;8594;52.052;8.354;2023-04-28T01:31:01;10.90;99.60
16955;DHT22;8594;52.052;8.354;2023-04-28T01:33:27;10.70;99.90
16955;DHT22;8594;52.052;8.354;2023-04-28T01:35:56;10.70;99.90
16955;DHT22;8594;52.052;8.354;2023-04-28T01:38:23;10.70;99.90
16955;DHT22;8594;52.052;8.354;2023-04-28T01:40:50;10.70;99.90
16955;DHT22;8594;52.052;8.354;2023-04-28T01:43:20;10.60;99.90
16955;DHT22;8594;52.052;8.354;2023-04-28T01:45:47;10.80;99.90
16955;DHT22;8594;52.052;8.354;2023-04-28T01:48:14;10.70;99.90
16955;DHT22;8594;52.052;8.354;2023-04-28T01:50:41;10.70;99.90
16955;DHT22;8594;52.052;8.354;2023-04-28T01:53:07;10.80;99.90
16955;DHT22;8594;52.052;8.354;2023-04-28T01:55:34;10.70;99.90
16955;DHT22;8594;52.052;8.354;2023-04-28T01:58:01;10.70;99.90
16955;DHT22;8594;52.052;8.354;2023-04-28T02:00:29;10.80;99.90
16955;DHT22;8594;52.052;8.354;2023-04-28T02:02:56;10.80;99.90
16955;DHT22;8594;52.052;8.354;2023-04-28T02:05:23;10.80;99.90
16955;DHT22;8594;52.052;8.354;2023-04-28T02:07:49;10.90;99.90
16955;DHT22;8594;52.052;8.354;2023-04-28T02:10:16;10.90;99.90
16955;DHT22;8594;52.052;8.354;2023-04-28T02:12:43;10.90;99.90
16955;DHT22;8594;52.052;8.354;2023-04-28T02:15:10;11.00;99.90
16955;DHT22;8594;52.052;8.354;2023-04-28T02:17:38;11.00;99.90
16955;DHT22;8594;52.052;8.354;2023-04-28T02:20:06;11.00;99.90
16955;DHT22;8594;52.052;8.354;2023-04-28T02:22:33;11.00;99.90
16955;DHT22;8594;52.052;8.354;2023-04-28T02:25:00;10.90;99.90
16955;DHT22;8594;52.052;8.354;2023-04-28T02:27:27;10.90;99.90
16955;DHT22;8594;52.052;8.354;2023-04-28T02:29:53;10.90;99.90
16955;DHT22;8594;52.052;8.354;2023-04-28T02:32:20;11.00;99.90
16955;DHT22;8594;52.052;8.354;2023-04-28T02:34:53;11.00;99.90
16955;DHT22;8594;52.052;8.354;2023-04-28T02:37:20;11.00;99.90
16955;DHT22;8594;52.052;8.354;2023-04-28T02:39:46;11.00;99.90
16955;DHT22;8594;52.052;8.354;2023-04-28T02:42:13;10.90;99.90
16955;DHT22;8594;52.052;8.354;2023-04-28T02:44:40;11.00;99.90
16955;DHT22;8594;52.052;8.354;2023-04-28T02:47:07;11.00;99.90
16955;DHT22;8594;52.052;8.354;2023-04-28T02:49:33;11.20;99.90
16955;DHT22;8594;52.052;8.354;2023-04-28T02:52:02;11.20;99.90
16955;DHT22;8594;52.052;8.354;2023-04-28T02:54:29;11.20;99.90
16955;DHT22;8594;52.052;8.354;2023-04-28T02:56:57;11.20;99.90
16955;DHT22;8594;52.052;8.354;2023-04-28T02:59:24;11.10;99.90
16955;DHT22;8594;52.052;8.354;2023-04-28T03:01:51;11.20;99.90
16955;DHT22;8594;52.052;8.354;2023-04-28T03:04:18;11.30;99.90
16955;DHT22;8594;52.052;8.354;2023-04-28T03:06:45;11.20;99.90
16955;DHT22;8594;52.052;8.354;2023-04-28T03:09:13;11.30;99.90
16955;DHT22;8594;52.052;8.354;2023-04-28T03:11:40;11.30;99.90
16955;DHT22;8594;52.052;8.354;2023-04-28T03:14:07;11.30;99.90
16955;DHT22;8594;52.052;8.354;2023-04-28T03:16:34;11.30;99.90
16955;DHT22;8594;52.052;8.354;2023-04-28T03:19:00;11.20;99.90
16955;DHT22;8594;52.052;8.354;2023-04-28T03:21:27;11.10;99.90
16955;DHT22;8594;52.052;8.354;2023-04-28T03:23:54;11.20;99.90
16955;DHT22;8594;52.052;8.354;2023-04-28T03:26:22;11.30;99.90
16955;DHT22;8594;52.052;8.354;2023-04-28T03:28:49;11.40;99.90
16955;DHT22;8594;52.052;8.354;2023-04-28T03:31:16;11.40;99.90
16955;DHT22;8594;52.052;8.354;2023-04-28T03:33:42;11.40;99.90
16955;DHT22;8594;52.052;8.354;2023-04-28T03:36:11;11.40;99.90
16955;DHT22;8594;52.052;8.354;2023-04-28T03:38:38;11.50;99.90
16955;DHT22;8594;52.052;8.354;2023-04-28T03:41:04;11.40;99.90
16955;DHT22;8594;52.052;8.354;2023-04-28T03:43:32;11.40;99.90
16955;DHT22;8594;52.052;8.354;2023-04-28T03:46:01;11.50;99.90
16955;DHT22;8594;52.052;8.354;2023-04-28T03:48:29;11.40;99.90
16955;DHT22;8594;52.052;8.354;2023-04-28T03:50:55;11.60;99.90
16955;DHT22;8594;52.052;8.354;2023-04-28T03:53:22;11.50;99.90
16955;DHT22;8594;52.052;8.354;2023-04-28T03:55:49;11.60;99.90
16955;DHT22;8594;52.052;8.354;2023-04-28T03:58:16;11.70;99.90
16955;DHT22;8594;52.052;8.354;2023-04-28T04:00:44;11.80;99.90
16955;DHT22;8594;52.052;8.354;2023-04-28T04:03:11;11.70;99.90
16955;DHT22;8594;52.052;8.354;2023-04-28T04:05:39;11.80;99.90
16955;DHT22;8594;52.052;8.354;2023-04-28T04:08:06;11.60;99.90
16955;DHT22;8594;52.052;8.354;2023-04-28T04:10:33;11.60;99.90
16955;DHT22;8594;52.052;8.354;2023-04-28T04:13:00;11.60;99.90
16955;DHT22;8594;52.052;8.354;2023-04-28T04:15:27;11.60;99.90
16955;DHT22;8594;52.052;8.354;2023-04-28T04:17:55;11.60;99.90
16955;DHT22;8594;52.052;8.354;2023-04-28T04:20:22;11.60;99.90
16955;DHT22;8594;52.052;8.354;2023-04-28T04:22:48;11.50;99.90
16955;DHT22;8594;52.052;8.354;2023-04-28T04:25:15;11.50;99.90
16955;DHT22;8594;52.052;8.354;2023-04-28T04:27:42;11.60;99.90
16955;DHT22;8594;52.052;8.354;2023-04-28T04:30:09;11.60;99.90
16955;DHT22;8594;52.052;8.354;2023-04-28T04:32:36;11.70;99.90
16955;DHT22;8594;52.052;8.354;2023-04-28T04:35:05;11.90;99.90
16955;DHT22;8594;52.052;8.354;2023-04-28T04:37:32;11.90;99.90
16955;DHT22;8594;52.052;8.354;2023-04-28T04:39:59;11.80;99.90
16955;DHT22;8594;52.052;8.354;2023-04-28T04:42:26;11.90;99.90
16955;DHT22;8594;52.052;8.354;2023-04-28T04:44:53;11.90;99.90
16955;DHT22;8594;52.052;8.354;2023-04-28T04:47:20;11.80;99.90
16955;DHT22;8594;52.052;8.354;2023-04-28T04:49:47;11.80;99.90
16955;DHT22;8594;52.052;8.354;2023-04-28T04:52:16;11.80;99.90
16955;DHT22;8594;52.052;8.354;2023-04-28T04:54:43;11.70;99.90
16955;DHT22;8594;52.052;8.354;2023-04-28T04:57:11;11.80;99.90
16955;DHT22;8594;52.052;8.354;2023-04-28T04:59:38;11.70;99.90
16955;DHT22;8594;52.052;8.354;2023-04-28T05:02:05;11.90;99.90
16955;DHT22;8594;52.052;8.354;2023-04-28T05:04:31;11.50;99.90
16955;DHT22;8594;52.052;8.354;2023-04-28T05:06:58;11.50;99.90
16955;DHT22;8594;52.052;8.354;2023-04-28T05:09:26;11.60;99.90
16955;DHT22;8594;52.052;8.354;2023-04-28T05:11:54;11.70;99.90
16955;DHT22;8594;52.052;8.354;2023-04-28T05:14:21;11.50;99.90
16955;DHT22;8594;52.052;8.354;2023-04-28T05:16:48;11.60;99.90
16955;DHT22;8594;52.052;8.354;2023-04-28T05:19:15;11.70;99.90
16955;DHT22;8594;52.052;8.354;2023-04-28T05:21:42;11.70;99.90
16955;DHT22;8594;52.052;8.354;2023-04-28T05:24:08;11.50;99.90
16955;DHT22;8594;52.052;8.354;2023-04-28T05:26:36;11.70;99.90
16955;DHT22;8594;52.052;8.354;2023-04-28T05:29:03;11.70;99.90
16955;DHT22;8594;52.052;8.354;2023-04-28T05:31:30;11.70;99.90
16955;DHT22;8594;52.052;8.354;2023-04-28T05:33:57;11.70;99.90
16955;DHT22;8594;52.052;8.354;2023-04-28T05:36:24;11.90;99.90
16955;DHT22;8594;52.052;8.354;2023-04-28T05:38:51;12.00;99.90
16955;DHT22;8594;52.052;8.354;2023-04-28T05:41:18;12.00;99.90
16955;DHT22;8594;52.052;8.354;2023-04-28T05:43:46;12.10;99.90
16955;DHT22;8594;52.052;8.354;2023-04-28T05:46:15;12.00;99.90
16955;DHT22;8594;52.052;8.354;2023-04-28T05:48:42;12.00;99.90
16955;DHT22;8594;52.052;8.354;2023-04-28T05:51:09;12.20;99.90
16955;DHT22;8594;52.052;8.354;2023-04-28T05:53:36;12.20;99.90
16955;DHT22;8594;52.052;8.354;2023-04-28T05:56:02;12.10;99.90
16955;DHT22;8594;52.052;8.354;2023-04-28T05:58:29;12.10;99.90
16955;DHT22;8594;52.052;8.354;2023-04-28T06:00:58;12.10;99.90
16955;DHT22;8594;52.052;8.354;2023-04-28T06:03:25;12.10;99.90
16955;DHT22;8594;52.052;8.354;2023-04-28T06:05:52;12.10;99.90
16955;DHT22;8594;52.052;8.354;2023-04-28T06:08:19;12.20;99.90
16955;DHT22;8594;52.052;8.354;2023-04-28T06:10:45;12.30;99.90
16955;DHT22;8594;52.052;8.354;2023-04-28T06:13:12;12.20;99.90
16955;DHT22;8594;52.052;8.354;2023-04-28T06:15:39;12.40;99.90
16955;DHT22;8594;52.052;8.354;2023-04-28T06:18:07;12.30;99.90
16955;DHT22;8594;52.052;8.354;2023-04-28T06:20:34;12.50;99.90
16955;DHT22;8594;52.052;8.354;2023-04-28T06:23:01;12.50;99.90
16955;DHT22;8594;52.052;8.354;2023-04-28T06:25:28;12.50;99.90
16955;DHT22;8594;52.052;8.354;2023-04-28T06:27:55;12.60;99.90
16955;DHT22;8594;52.052;8.354;2023-04-28T06:30:23;12.60;99.90
16955;DHT22;8594;52.052;8.354;2023-04-28T06:32:50;12.50;99.90
16955;DHT22;8594;52.052;8.354;2023-04-28T06:35:18;12.60;99.90
16955;DHT22;8594;52.052;8.354;2023-04-28T06:37:45;12.40;99.90
16955;DHT22;8594;52.052;8.354;2023-04-28T06:40:11;12.40;99.90
16955;DHT22;8594;52.052;8.354;2023-04-28T06:42:38;12.40;99.90
16955;DHT22;8594;52.052;8.354;2023-04-28T06:45:06;12.40;99.90
16955;DHT22;8594;52.052;8.354;2023-04-28T06:47:35;12.20;99.90
16955;DHT22;8594;52.052;8.354;2023-04-28T06:50:05;12.30;99.90
16955;DHT22;8594;52.052;8.354;2023-04-28T06:52:34;12.60;99.90
16955;DHT22;8594;52.052;8.354;2023-04-28T06:55:01;12.60;99.90
16955;DHT22;8594;52.052;8.354;2023-04-28T06:57:27;12.80;99.90
16955;DHT22;8594;52.052;8.354;2023-04-28T06:59:54;12.80;99.90
16955;DHT22;8594;52.052;8.354;2023-04-28T07:02:21;12.80;99.90
16955;DHT22;8594;52.052;8.354;2023-04-28T07:04:48;12.90;99.90
16955;DHT22;8594;52.052;8.354;2023-04-28T07:07:15;13.10;99.90
16955;DHT22;8594;52.052;8.354;2023-04-28T07:09:43;12.80;99.90
16955;DHT22;8594;52.052;8.354;2023-04-28T07:12:09;12.80;99.90
16955;DHT22;8594;52.052;8.354;2023-04-28T07:14:36;13.00;99.90
16955;DHT22;8594;52.052;8.354;2023-04-28T07:17:03;13.10;99.90
16955;DHT22;8594;52.052;8.354;2023-04-28T07:19:30;13.00;99.90
16955;DHT22;8594;52.052;8.354;2023-04-28T07:21:57;13.10;99.90
16955;DHT22;8594;52.052;8.354;2023-04-28T07:24:23;13.10;99.90
16955;DHT22;8594;52.052;8.354;2023-04-28T07:26:53;13.10;99.90
16955;DHT22;8594;52.052;8.354;2023-04-28T07:29:19;13.10;99.90
16955;DHT22;8594;52.052;8.354;2023-04-28T07:31:46;13.20;99.90
16955;DHT22;8594;52.052;8.354;2023-04-28T07:34:13;13.10;99.90
16955;DHT22;8594;52.052;8.354;2023-04-28T07:36:40;13.00;99.90
16955;DHT22;8594;52.052;8.354;2023-04-28T07:39:07;13.00;99.90
16955;DHT22;8594;52.052;8.354;2023-04-28T07:41:35;13.20;99.90
16955;DHT22;8594;52.052;8.354;2023-04-28T07:44:04;13.20;99.90
16955;DHT22;8594;52.052;8.354;2023-04-28T07:46:32;13.00;99.90
16955;DHT22;8594;52.052;8.354;2023-04-28T07:48:59;13.10;99.90
16955;DHT22;8594;52.052;8.354;2023-04-28T07:51:27;13.10;99.90
16955;DHT22;8594;52.052;8.354;2023-04-28T07:53:54;13.30;99.90
16955;DHT22;8594;52.052;8.354;2023-04-28T07:56:21;13.30;99.90
16955;DHT22;8594;52.052;8.354;2023-04-28T07:58:48;13.20;99.90
16955;DHT22;8594;52.052;8.354;2023-04-28T08:01:16;13.40;99.90
16955;DHT22;8594;52.052;8.354;2023-04-28T08:03:43;13.30;99.90
16955;DHT22;8594;52.052;8.354;2023-04-28T08:06:10;13.50;99.90
16955;DHT22;8594;52.052;8.354;2023-04-28T08:08:38;13.70;99.90
16955;DHT22;8594;52.052;8.354;2023-04-28T08:11:04;13.70;99.90
16955;DHT22;8594;52.052;8.354;2023-04-28T08:13:32;13.50;99.90
16955;DHT22;8594;52.052;8.354;2023-04-28T08:15:59;13.70;99.90
16955;DHT22;8594;52.052;8.354;2023-04-28T08:18:28;13.80;99.90
16955;DHT22;8594;52.052;8.354;2023-04-28T08:20:54;14.10;99.90
16955;DHT22;8594;52.052;8.354;2023-04-28T08:23:21;14.20;99.90
16955;DHT22;8594;52.052;8.354;2023-04-28T08:25:52;14.20;99.90
16955;DHT22;8594;52.052;8.354;2023-04-28T08:28:19;14.30;99.90
16955;DHT22;8594;52.052;8.354;2023-04-28T08:30:46;14.30;99.90
16955;DHT22;8594;52.052;8.354;2023-04-28T08:33:13;14.10;99.90
16955;DHT22;8594;52.052;8.354;2023-04-28T08:35:41;14.30;99.90
16955;DHT22;8594;52.052;8.354;2023-04-28T08:38:09;14.30;99.90
16955;DHT22;8594;52.052;8.354;2023-04-28T08:40:38;14.30;99.90
16955;DHT22;8594;52.052;8.354;2023-04-28T08:43:05;14.40;99.90
16955;DHT22;8594;52.052;8.354;2023-04-28T08:45:39;14.30;99.90
16955;DHT22;8594;52.052;8.354;2023-04-28T08:48:16;14.40;99.90
16955;DHT22;8594;52.052;8.354;2023-04-28T08:50:48;14.50;99.90
16955;DHT22;8594;52.052;8.354;2023-04-28T08:53:21;14.50;99.90
16955;DHT22;8594;52.052;8.354;2023-04-28T08:55:51;14.70;99.90
16955;DHT22;8594;52.052;8.354;2023-04-28T08:58:21;14.70;99.90
16955;DHT22;8594;52.052;8.354;2023-04-28T09:00:49;14.70;99.90
16955;DHT22;8594;52.052;8.354;2023-04-28T09:03:16;14.50;99.90
16955;DHT22;8594;52.052;8.354;2023-04-28T09:05:43;14.40;99.90
16955;DHT22;8594;52.052;8.354;2023-04-28T09:08:12;14.40;99.90
16955;DHT22;8594;52.052;8.354;2023-04-28T09:10:39;14.50;99.90
16955;DHT22;8594;52.052;8.354;2023-04-28T09:13:06;14.50;99.90
16955;DHT22;8594;52.052;8.354;2023-04-28T09:15:34;14.50;99.90
16955;DHT22;8594;52.052;8.354;2023-04-28T09:18:06;14.50;99.90
16955;DHT22;8594;52.052;8.354;2023-04-28T09:20:35;14.50;99.90
16955;DHT22;8594;52.052;8.354;2023-04-28T09:23:16;14.40;99.90
16955;DHT22;8594;52.052;8.354;2023-04-28T09:25:58;14.30;99.90
16955;DHT22;8594;52.052;8.354;2023-04-28T09:28:26;14.00;99.90
16955;DHT22;8594;52.052;8.354;2023-04-28T09:30:53;14.00;99.90
16955;DHT22;8594;52.052;8.354;2023-04-28T09:33:20;14.10;99.90
16955;DHT22;8594;52.052;8.354;2023-04-28T09:35:47;14.20;99.90
16955;DHT22;8594;52.052;8.354;2023-04-28T09:38:15;14.30;99.90
16955;DHT22;8594;52.052;8.354;2023-04-28T09:40:54;14.40;99.90
16955;DHT22;8594;52.052;8.354;2023-04-28T09:43:27;14.50;99.90
16955;DHT22;8594;52.052;8.354;2023-04-28T09:45:56;14.70;99.90
16955;DHT22;8594;52.052;8.354;2023-04-28T09:48:31;14.60;99.90
16955;DHT22;8594;52.052;8.354;2023-04-28T09:51:00;14.80;99.90
16955;DHT22;8594;52.052;8.354;2023-04-28T09:53:29;15.00;99.90
16955;DHT22;8594;52.052;8.354;2023-04-28T09:56:00;14.90;99.90
16955;DHT22;8594;52.052;8.354;2023-04-28T09:58:30;14.70;99.90
16955;DHT22;8594;52.052;8.354;2023-04-28T10:00:58;14.80;99.90
16955;DHT22;8594;52.052;8.354;2023-04-28T10:03:27;14.80;99.90
16955;DHT22;8594;52.052;8.354;2023-04-28T10:05:57;14.70;99.90
16955;DHT22;8594;52.052;8.354;2023-04-28T10:08:25;14.80;99.90
16955;DHT22;8594;52.052;8.354;2023-04-28T10:10:54;14.70;99.90
16955;DHT22;8594;52.052;8.354;2023-04-28T10:13:22;14.70;99.90
16955;DHT22;8594;52.052;8.354;2023-04-28T10:15:50;14.80;99.90
16955;DHT22;8594;52.052;8.354;2023-04-28T10:18:21;14.70;99.90
16955;DHT22;8594;52.052;8.354;2023-04-28T10:20:54;14.70;99.90
16955;DHT22;8594;52.052;8.354;2023-04-28T10:27:06;15.20;99.90
16955;DHT22;8594;52.052;8.354;2023-04-28T10:29:34;15.60;99.90
16955;DHT22;8594;52.052;8.354;2023-04-28T10:32:21;15.80;99.90
16955;DHT22;8594;52.052;8.354;2023-04-28T10:34:50;15.70;99.90
16955;DHT22;8594;52.052;8.354;2023-04-28T10:37:17;15.70;99.90
16955;DHT22;8594;52.052;8.354;2023-04-28T10:43:01;15.40;99.90
16955;DHT22;8594;52.052;8.354;2023-04-28T10:46:00;15.30;99.90
16955;DHT22;8594;52.052;8.354;2023-04-28T10:48:51;15.40;99.90
16955;DHT22;8594;52.052;8.354;2023-04-28T10:51:30;15.30;99.90
16955;DHT22;8594;52.052;8.354;2023-04-28T10:54:21;15.30;99.90
16955;DHT22;8594;52.052;8.354;2023-04-28T10:57:19;15.30;99.90
16955;DHT22;8594;52.052;8.354;2023-04-28T10:59:50;15.50;99.90
16955;DHT22;8594;52.052;8.354;2023-04-28T11:02:47;15.60;99.90
16955;DHT22;8594;52.052;8.354;2023-04-28T11:05:15;15.80;99.90
16955;DHT22;8594;52.052;8.354;2023-04-28T11:11:23;16.10;99.90
16955;DHT22;8594;52.052;8.354;2023-04-28T11:13:52;16.30;99.90
16955;DHT22;8594;52.052;8.354;2023-04-28T11:16:23;16.30;99.90
16955;DHT22;8594;52.052;8.354;2023-04-28T11:18:56;16.30;99.90
16955;DHT22;8594;52.052;8.354;2023-04-28T11:21:28;16.40;99.90
16955;DHT22;8594;52.052;8.354;2023-04-28T11:23:56;16.40;99.90
16955;DHT22;8594;52.052;8.354;2023-04-28T11:26:24;16.50;99.90
16955;DHT22;8594;52.052;8.354;2023-04-28T11:28:54;16.60;99.90
16955;DHT22;8594;52.052;8.354;2023-04-28T11:31:24;16.70;99.90
16955;DHT22;8594;52.052;8.354;2023-04-28T11:33:57;16.80;99.90
16955;DHT22;8594;52.052;8.354;2023-04-28T11:36:28;17.10;99.90
16955;DHT22;8594;52.052;8.354;2023-04-28T11:38:57;17.30;99.90
16955;DHT22;8594;52.052;8.354;2023-04-28T11:41:24;17.30;99.90
16955;DHT22;8594;52.052;8.354;2023-04-28T11:43:52;17.50;99.90
16955;DHT22;8594;52.052;8.354;2023-04-28T11:46:21;17.90;99.90
16955;DHT22;8594;52.052;8.354;2023-04-28T11:49:00;18.10;99.90
16955;DHT22;8594;52.052;8.354;2023-04-28T11:51:35;17.70;99.90
16955;DHT22;8594;52.052;8.354;2023-04-28T11:54:03;17.60;99.90
16955;DHT22;8594;52.052;8.354;2023-04-28T11:56:40;17.70;99.90
16955;DHT22;8594;52.052;8.354;2023-04-28T11:59:11;17.50;99.90
16955;DHT22;8594;52.052;8.354;2023-04-28T12:01:47;17.50;99.90
16955;DHT22;8594;52.052;8.354;2023-04-28T12:04:27;17.50;99.90
16955;DHT22;8594;52.052;8.354;2023-04-28T12:07:04;17.20;99.90
16955;DHT22;8594;52.052;8.354;2023-04-28T12:09:32;17.20;99.90
16955;DHT22;8594;52.052;8.354;2023-04-28T12:12:01;17.40;99.90
16955;DHT22;8594;52.052;8.354;2023-04-28T12:14:29;17.50;99.90
16955;DHT22;8594;52.052;8.354;2023-04-28T12:16:59;17.60;99.90
16955;DHT22;8594;52.052;8.354;2023-04-28T12:19:28;17.90;99.90
16955;DHT22;8594;52.052;8.354;2023-04-28T12:22:00;17.70;99.90
16955;DHT22;8594;52.052;8.354;2023-04-28T12:24:27;17.80;99.90
16955;DHT22;8594;52.052;8.354;2023-04-28T12:27:12;17.80;99.90
16955;DHT22;8594;52.052;8.354;2023-04-28T12:29:42;17.90;99.90
16955;DHT22;8594;52.052;8.354;2023-04-28T12:32:10;17.80;99.90
16955;DHT22;8594;52.052;8.354;2023-04-28T12:34:40;17.90;99.90
16955;DHT22;8594;52.052;8.354;2023-04-28T12:37:07;17.90;99.90
16955;DHT22;8594;52.052;8.354;2023-04-28T12:39:35;17.70;99.90
16955;DHT22;8594;52.052;8.354;2023-04-28T12:42:02;17.90;99.90
16955;DHT22;8594;52.052;8.354;2023-04-28T12:44:34;18.10;99.90
16955;DHT22;8594;52.052;8.354;2023-04-28T12:47:03;18.20;99.90
16955;DHT22;8594;52.052;8.354;2023-04-28T12:49:33;18.20;99.90
16955;DHT22;8594;52.052;8.354;2023-04-28T12:52:02;18.30;99.90
16955;DHT22;8594;52.052;8.354;2023-04-28T12:54:31;18.40;99.90
16955;DHT22;8594;52.052;8.354;2023-04-28T12:56:57;18.70;99.90
16955;DHT22;8594;52.052;8.354;2023-04-28T12:59:24;18.70;99.90
16955;DHT22;8594;52.052;8.354;2023-04-28T13:01:51;18.60;99.90
16955;DHT22;8594;52.052;8.354;2023-04-28T13:04:19;18.70;99.90
16955;DHT22;8594;52.052;8.354;2023-04-28T13:06:47;18.90;99.90
16955;DHT22;8594;52.052;8.354;2023-04-28T13:09:16;18.80;99.90
16955;DHT22;8594;52.052;8.354;2023-04-28T13:11:42;18.60;99.90
16955;DHT22;8594;52.052;8.354;2023-04-28T13:14:10;18.50;99.90
16955;DHT22;8594;52.052;8.354;2023-04-28T13:16:36;18.30;99.90
16955;DHT22;8594;52.052;8.354;2023-04-28T13:19:03;18.30;99.90
16955;DHT22;8594;52.052;8.354;2023-04-28T13:21:33;18.30;99.90
16955;DHT22;8594;52.052;8.354;2023-04-28T13:24:01;18.40;99.90
16955;DHT22;8594;52.052;8.354;2023-04-28T13:26:30;18.40;99.90
16955;DHT22;8594;52.052;8.354;2023-04-28T13:28:57;18.40;99.90
16955;DHT22;8594;52.052;8.354;2023-04-28T13:31:24;18.40;99.90
16955;DHT22;8594;52.052;8.354;2023-04-28T13:33:51;18.10;99.90
16955;DHT22;8594;52.052;8.354;2023-04-28T13:36:18;18.10;99.90
16955;DHT22;8594;52.052;8.354;2023-04-28T13:38:44;18.10;99.90
16955;DHT22;8594;52.052;8.354;2023-04-28T13:41:13;18.20;99.90
16955;DHT22;8594;52.052;8.354;2023-04-28T13:43:41;18.20;99.90
16955;DHT22;8594;52.052;8.354;2023-04-28T13:46:10;18.50;99.90
16955;DHT22;8594;52.052;8.354;2023-04-28T13:48:37;18.50;99.90
16955;DHT22;8594;52.052;8.354;2023-04-28T13:51:05;18.50;99.90
16955;DHT22;8594;52.052;8.354;2023-04-28T13:53:34;18.30;99.90
16955;DHT22;8594;52.052;8.354;2023-04-28T13:56:01;18.00;99.90
16955;DHT22;8594;52.052;8.354;2023-04-28T13:58:29;17.90;99.90
16955;DHT22;8594;52.052;8.354;2023-04-28T14:00:57;17.90;99.90
16955;DHT22;8594;52.052;8.354;2023-04-28T14:03:25;17.90;99.90
16955;DHT22;8594;52.052;8.354;2023-04-28T14:05:53;17.80;99.90
16955;DHT22;8594;52.052;8.354;2023-04-28T14:08:23;17.90;99.90
16955;DHT22;8594;52.052;8.354;2023-04-28T14:10:50;17.80;99.90
16955;DHT22;8594;52.052;8.354;2023-04-28T14:13:18;17.90;99.90
16955;DHT22;8594;52.052;8.354;2023-04-28T14:15:45;17.70;99.90
16955;DHT22;8594;52.052;8.354;2023-04-28T14:18:13;17.60;99.90
16955;DHT22;8594;52.052;8.354;2023-04-28T14:20:40;17.70;99.90
16955;DHT22;8594;52.052;8.354;2023-04-28T14:23:08;17.50;99.90
16955;DHT22;8594;52.052;8.354;2023-04-28T14:25:34;17.50;99.90
16955;DHT22;8594;52.052;8.354;2023-04-28T14:28:02;17.60;99.90
16955;DHT22;8594;52.052;8.354;2023-04-28T14:30:29;17.60;99.90
16955;DHT22;8594;52.052;8.354;2023-04-28T14:32:56;17.50;99.90
16955;DHT22;8594;52.052;8.354;2023-04-28T14:35:25;17.30;99.90
16955;DHT22;8594;52.052;8.354;2023-04-28T14:37:52;17.20;99.90
16955;DHT22;8594;52.052;8.354;2023-04-28T14:40:19;17.60;99.90
16955;DHT22;8594;52.052;8.354;2023-04-28T14:42:46;17.50;99.90
16955;DHT22;8594;52.052;8.354;2023-04-28T14:45:13;17.50;99.90
16955;DHT22;8594;52.052;8.354;2023-04-28T14:47:40;17.40;99.90
16955;DHT22;8594;52.052;8.354;2023-04-28T14:50:07;17.30;99.90
16955;DHT22;8594;52.052;8.354;2023-04-28T14:52:37;17.30;99.90
16955;DHT22;8594;52.052;8.354;2023-04-28T14:55:04;17.40;99.90
16955;DHT22;8594;52.052;8.354;2023-04-28T14:57:31;17.30;99.90
16955;DHT22;8594;52.052;8.354;2023-04-28T14:59:59;17.10;99.90
16955;DHT22;8594;52.052;8.354;2023-04-28T15:02:28;17.10;99.90
16955;DHT22;8594;52.052;8.354;2023-04-28T15:04:55;17.00;99.90
16955;DHT22;8594;52.052;8.354;2023-04-28T15:07:22;16.90;99.90
16955;DHT22;8594;52.052;8.354;2023-04-28T15:09:54;16.90;99.90
16955;DHT22;8594;52.052;8.354;2023-04-28T15:12:20;16.90;99.90
16955;DHT22;8594;52.052;8.354;2023-04-28T15:14:47;16.80;99.90
16955;DHT22;8594;52.052;8.354;2023-04-28T15:17:14;17.00;99.90
16955;DHT22;8594;52.052;8.354;2023-04-28T15:19:41;17.00;99.90
16955;DHT22;8594;52.052;8.354;2023-04-28T15:22:08;17.10;99.90
16955;DHT22;8594;52.052;8.354;2023-04-28T15:24:35;17.40;99.90
16955;DHT22;8594;52.052;8.354;2023-04-28T15:27:03;17.50;99.90
16955;DHT22;8594;52.052;8.354;2023-04-28T15:29:30;17.60;99.90
16955;DHT22;8594;52.052;8.354;2023-04-28T15:31:57;17.60;99.90
16955;DHT22;8594;52.052;8.354;2023-04-28T15:34:24;17.60;99.90
16955;DHT22;8594;52.052;8.354;2023-04-28T15:36:51;17.80;99.90
16955;DHT22;8594;52.052;8.354;2023-04-28T15:39:19;17.90;99.90
16955;DHT22;8594;52.052;8.354;2023-04-28T15:41:46;17.80;99.90
16955;DHT22;8594;52.052;8.354;2023-04-28T15:44:14;17.80;99.90
16955;DHT22;8594;52.052;8.354;2023-04-28T15:46:41;17.80;99.90
16955;DHT22;8594;52.052;8.354;2023-04-28T15:49:09;17.70;99.90
16955;DHT22;8594;52.052;8.354;2023-04-28T15:51:36;17.80;99.90
16955;DHT22;8594;52.052;8.354;2023-04-28T15:54:03;17.80;99.90
16955;DHT22;8594;52.052;8.354;2023-04-28T15:56:29;17.60;99.90
16955;DHT22;8594;52.052;8.354;2023-04-28T15:58:56;17.50;99.90
16955;DHT22;8594;52.052;8.354;2023-04-28T16:01:24;17.40;99.90